createdAt,value
2022-08-18T00:01:18.824Z,22.30
2022-08-18T00:03:56.989Z,22.30
2022-08-18T00:06:32.470Z,22.30
2022-08-18T00:09:05.670Z,22.20
2022-08-18T00:11:41.035Z,22.20
2022-08-18T00:14:22.251Z,22.20
2022-08-18T00:16:54.129Z,22.10
2022-08-18T00:19:45.485Z,22.10
2022-08-18T00:22:15.383Z,22.00
2022-08-18T00:24:49.458Z,22.00
2022-08-18T00:27:23.386Z,22.00
2022-08-18T00:29:53.755Z,21.90
2022-08-18T00:32:25.079Z,22.00
2022-08-18T00:34:54.981Z,21.90
2022-08-18T00:37:24.836Z,21.90
2022-08-18T00:39:55.477Z,21.80
2022-08-18T00:42:30.706Z,21.80
2022-08-18T00:45:02.926Z,21.80
2022-08-18T00:47:42.576Z,21.80
2022-08-18T00:50:16.263Z,21.70
2022-08-18T00:52:54.944Z,21.80
2022-08-18T00:55:26.542Z,21.70
2022-08-18T00:58:01.904Z,21.80
2022-08-18T01:00:30.491Z,21.70
2022-08-18T01:03:04.115Z,21.70
2022-08-18T01:05:40.967Z,21.70
2022-08-18T01:08:14.475Z,21.60
2022-08-18T01:10:45.342Z,21.50
2022-08-18T01:13:14.254Z,21.50
2022-08-18T01:15:43.095Z,21.50
2022-08-18T01:18:32.367Z,21.40
2022-08-18T01:21:27.103Z,21.30
2022-08-18T01:23:58.600Z,21.30
2022-08-18T01:26:28.961Z,21.30
2022-08-18T01:29:04.988Z,21.20
2022-08-18T01:31:38.380Z,21.10
2022-08-18T01:34:07.679Z,21.10
2022-08-18T01:36:38.483Z,21.00
2022-08-18T01:39:11.512Z,21.00
2022-08-18T01:41:41.246Z,21.00
2022-08-18T01:44:11.785Z,21.00
2022-08-18T01:46:42.451Z,21.00
2022-08-18T01:49:13.398Z,20.90
2022-08-18T01:51:42.742Z,21.00
2022-08-18T01:54:16.092Z,20.90
2022-08-18T01:56:45.015Z,20.90
2022-08-18T01:59:15.186Z,21.00
2022-08-18T02:01:50.549Z,21.00
2022-08-18T02:04:35.697Z,21.00
2022-08-18T02:07:08.586Z,21.00
2022-08-18T02:09:39.896Z,21.00
2022-08-18T02:12:09.149Z,21.00
2022-08-18T02:14:38.330Z,21.00
2022-08-18T02:17:09.334Z,21.00
2022-08-18T02:19:40.317Z,21.00
2022-08-18T02:22:11.106Z,21.00
2022-08-18T02:24:41.402Z,21.00
2022-08-18T02:27:12.019Z,21.00
2022-08-18T02:29:41.190Z,21.00
2022-08-18T02:32:09.754Z,20.90
2022-08-18T02:34:38.382Z,20.80
2022-08-18T02:37:07.493Z,20.80
2022-08-18T02:39:38.169Z,20.80
2022-08-18T02:42:09.273Z,20.80
2022-08-18T02:44:37.817Z,20.80
2022-08-18T02:47:06.255Z,20.80
2022-08-18T02:49:36.962Z,20.70
2022-08-18T02:52:06.143Z,20.60
2022-08-18T02:54:35.282Z,20.50
2022-08-18T02:57:10.769Z,20.50
2022-08-18T02:59:40.644Z,20.50
2022-08-18T03:02:11.495Z,20.50
2022-08-18T03:04:40.397Z,20.50
2022-08-18T03:07:09.765Z,20.40
2022-08-18T03:09:38.785Z,20.50
2022-08-18T03:12:09.659Z,20.50
2022-08-18T03:14:40.071Z,20.50
2022-08-18T03:17:10.013Z,20.40
2022-08-18T03:19:38.702Z,20.50
2022-08-18T03:22:28.145Z,20.50
2022-08-18T03:24:58.903Z,20.50
2022-08-18T03:27:28.981Z,20.60
2022-08-18T03:29:58.794Z,20.60
2022-08-18T03:32:27.475Z,20.60
2022-08-18T03:34:55.943Z,20.60
2022-08-18T03:37:24.719Z,20.60
2022-08-18T03:39:53.229Z,20.50
2022-08-18T03:42:21.785Z,20.50
2022-08-18T03:44:52.509Z,20.50
2022-08-18T03:47:21.272Z,20.40
2022-08-18T03:49:49.964Z,20.50
2022-08-18T03:52:18.591Z,20.40
2022-08-18T03:54:47.245Z,20.30
2022-08-18T03:57:15.681Z,20.30
2022-08-18T03:59:44.241Z,20.30
2022-08-18T04:02:16.471Z,20.40
2022-08-18T04:04:45.074Z,20.60
2022-08-18T04:07:17.639Z,20.80
2022-08-18T04:09:46.999Z,21.40
2022-08-18T04:12:17.841Z,22.00
2022-08-18T04:14:49.716Z,22.50
2022-08-18T04:17:24.869Z,23.20
2022-08-18T04:19:54.220Z,23.80
2022-08-18T04:22:22.970Z,24.10
2022-08-18T04:25:09.416Z,24.20
2022-08-18T04:27:42.787Z,24.20
2022-08-18T04:30:12.411Z,24.40
2022-08-18T04:32:43.561Z,24.60
2022-08-18T04:35:14.142Z,24.90
2022-08-18T04:37:43.981Z,25.20
2022-08-18T04:46:36.688Z,25.80
2022-08-18T04:49:08.114Z,25.70
2022-08-18T04:52:34.496Z,25.90
2022-08-18T04:54:25.563Z,26.20
2022-08-18T04:56:55.257Z,26.30
2022-08-18T04:59:25.046Z,26.40
2022-08-18T05:01:53.859Z,26.60
2022-08-18T05:04:28.861Z,26.80
2022-08-18T05:06:58.942Z,27.00
2022-08-18T05:09:29.232Z,27.20
2022-08-18T05:11:57.911Z,27.60
2022-08-18T05:14:26.732Z,27.70
2022-08-18T05:16:55.370Z,27.70
2022-08-18T05:19:26.870Z,27.90
2022-08-18T05:22:06.271Z,27.80
2022-08-18T05:24:39.888Z,27.70
2022-08-18T05:27:12.270Z,27.50
2022-08-18T05:29:46.166Z,27.80
2022-08-18T05:32:42.521Z,28.00
2022-08-18T05:35:16.351Z,28.10
2022-08-18T05:37:58.349Z,28.80
2022-08-18T05:40:29.891Z,28.80
2022-08-18T05:43:01.669Z,29.30
2022-08-18T05:45:30.954Z,29.80
2022-08-18T05:48:01.663Z,29.80
2022-08-18T05:50:37.717Z,30.30
2022-08-18T05:53:13.729Z,30.40
2022-08-18T05:56:09.799Z,30.60
2022-08-18T05:58:43.489Z,30.80
2022-08-18T06:01:17.337Z,30.70
2022-08-18T06:03:51.923Z,30.60
2022-08-18T06:06:26.372Z,30.80
2022-08-18T06:09:00.212Z,31.00
2022-08-18T06:11:28.950Z,31.00
2022-08-18T06:14:01.497Z,31.50
2022-08-18T06:16:47.653Z,31.70
2022-08-18T06:19:31.508Z,31.80
2022-08-18T06:22:14.957Z,31.90
2022-08-18T06:24:56.611Z,32.10
2022-08-18T06:27:33.856Z,32.30
2022-08-18T06:30:08.611Z,32.40
2022-08-18T06:32:52.989Z,32.70
2022-08-18T06:35:30.931Z,32.30
2022-08-18T06:38:36.723Z,32.40
2022-08-18T06:41:42.379Z,33.20
2022-08-18T06:44:03.366Z,33.30
2022-08-18T06:46:46.990Z,33.00
2022-08-18T06:49:22.905Z,33.30
2022-08-18T06:51:51.389Z,32.40
2022-08-18T06:54:31.048Z,32.70
2022-08-18T06:57:01.660Z,33.20
2022-08-18T06:59:32.441Z,32.70
2022-08-18T07:02:11.598Z,32.60
2022-08-18T07:04:44.085Z,32.40
2022-08-18T07:07:39.403Z,32.10
2022-08-18T07:10:35.180Z,32.70
2022-08-18T07:13:18.894Z,33.30
2022-08-18T07:15:48.538Z,33.00
2022-08-18T07:18:26.068Z,32.40
2022-08-18T07:20:59.920Z,31.70
2022-08-18T07:23:33.970Z,31.70
2022-08-18T07:26:11.920Z,31.10
2022-08-18T07:28:49.915Z,30.40
2022-08-18T07:31:35.016Z,29.40
2022-08-18T07:34:08.927Z,29.40
2022-08-18T07:36:51.416Z,29.60
2022-08-18T07:39:26.315Z,30.00
2022-08-18T07:42:01.776Z,30.60
2022-08-18T07:44:44.588Z,30.70
2022-08-18T07:47:20.473Z,31.00
2022-08-18T07:50:16.461Z,30.80
2022-08-18T07:52:44.154Z,30.40
2022-08-18T07:55:28.162Z,30.60
2022-08-18T07:58:10.086Z,30.20
2022-08-18T08:01:00.125Z,30.30
2022-08-18T08:03:45.536Z,30.40
2022-08-18T08:06:21.572Z,30.50
2022-08-18T08:09:00.850Z,30.10
2022-08-18T08:11:39.843Z,30.10
2022-08-18T08:14:29.336Z,30.30
2022-08-18T08:17:05.786Z,30.20
2022-08-18T08:20:00.997Z,30.20
2022-08-18T08:22:40.731Z,30.20
2022-08-18T08:25:44.666Z,30.00
2022-08-18T08:28:15.954Z,29.80
2022-08-18T08:31:09.054Z,29.80
2022-08-18T08:33:52.730Z,30.00
2022-08-18T08:36:28.208Z,30.10
2022-08-18T08:39:00.492Z,30.20
2022-08-18T08:41:35.983Z,30.10
2022-08-18T08:44:10.406Z,30.00
2022-08-18T08:46:46.770Z,30.10
2022-08-18T08:49:27.682Z,30.30
2022-08-18T08:52:01.391Z,30.50
2022-08-18T08:54:36.141Z,30.60
2022-08-18T08:57:07.129Z,30.70
2022-08-18T08:59:40.799Z,30.80
2022-08-18T09:02:48.253Z,30.90
2022-08-18T09:05:22.646Z,31.00
2022-08-18T09:08:26.570Z,30.80
2022-08-18T09:11:19.410Z,30.80
2022-08-18T09:17:34.581Z,30.30
2022-08-18T09:20:23.144Z,30.30
2022-08-18T09:22:54.543Z,30.20
2022-08-18T09:25:46.475Z,30.20
2022-08-18T09:28:19.052Z,30.10
2022-08-18T09:31:13.399Z,30.10
2022-08-18T09:34:10.680Z,30.10
2022-08-18T09:36:57.627Z,30.30
2022-08-18T09:39:54.551Z,30.30
2022-08-18T09:42:59.823Z,30.60
2022-08-18T09:46:00.908Z,30.60
2022-08-18T09:48:35.592Z,30.70
2022-08-18T09:51:35.077Z,30.70
2022-08-18T09:54:13.776Z,30.60
2022-08-18T09:57:19.523Z,30.80
2022-08-18T10:00:26.649Z,30.90
2022-08-18T10:03:13.672Z,31.10
2022-08-18T10:06:15.760Z,31.20
2022-08-18T10:09:17.677Z,31.10
2022-08-18T10:12:17.634Z,31.00
2022-08-18T10:15:03.472Z,31.00
2022-08-18T10:17:50.143Z,30.80
2022-08-18T10:20:38.869Z,30.70
2022-08-18T10:23:10.732Z,30.80
2022-08-18T10:25:43.309Z,31.10
2022-08-18T10:28:34.604Z,31.10
2022-08-18T10:31:09.780Z,31.10
2022-08-18T10:36:58.920Z,31.10
2022-08-18T10:39:45.689Z,31.10
2022-08-18T10:42:30.883Z,31.00
2022-08-18T10:48:17.335Z,31.00
2022-08-18T10:50:53.115Z,31.10
2022-08-18T10:53:39.542Z,31.00
2022-08-18T10:56:26.979Z,31.00
2022-08-18T10:59:16.301Z,31.00
2022-08-18T11:02:11.364Z,31.10
2022-08-18T11:04:46.105Z,31.40
2022-08-18T11:07:19.272Z,31.30
2022-08-18T11:10:04.263Z,31.50
2022-08-18T11:13:07.266Z,31.60
2022-08-18T11:15:50.769Z,31.50
2022-08-18T11:21:32.651Z,31.40
2022-08-18T11:24:10.529Z,31.30
2022-08-18T11:26:41.693Z,31.20
2022-08-18T11:29:28.881Z,31.20
2022-08-18T11:32:03.912Z,31.20
2022-08-18T11:34:45.782Z,31.20
2022-08-18T11:37:27.098Z,31.20
2022-08-18T11:39:58.696Z,31.20
2022-08-18T11:42:33.444Z,31.30
2022-08-18T11:45:16.916Z,31.30
2022-08-18T11:48:15.301Z,31.50
2022-08-18T11:51:02.328Z,31.80
2022-08-18T11:53:44.169Z,31.80
2022-08-18T11:56:30.802Z,31.80
2022-08-18T11:59:03.953Z,32.00
2022-08-18T12:01:42.254Z,31.90
2022-08-18T12:04:24.752Z,32.10
2022-08-18T12:07:00.785Z,32.10
2022-08-18T12:10:17.237Z,32.20
2022-08-18T12:12:30.625Z,32.30
2022-08-18T12:15:13.635Z,32.30
2022-08-18T12:17:52.138Z,32.40
2022-08-18T12:20:23.677Z,32.30
2022-08-18T12:22:54.525Z,32.40
2022-08-18T12:25:25.184Z,32.30
2022-08-18T12:27:57.021Z,32.10
2022-08-18T12:30:26.205Z,32.10
2022-08-18T12:33:01.035Z,32.10
2022-08-18T12:35:36.446Z,32.00
2022-08-18T12:38:13.094Z,32.10
2022-08-18T12:40:43.383Z,32.10
2022-08-18T12:43:14.624Z,32.00
2022-08-18T12:45:43.495Z,32.00
2022-08-18T12:48:12.328Z,32.10
2022-08-18T12:50:54.570Z,32.10
2022-08-18T12:53:30.623Z,32.10
2022-08-18T12:56:22.397Z,32.10
2022-08-18T12:58:51.959Z,32.20
2022-08-18T13:01:23.378Z,32.20
2022-08-18T13:04:10.631Z,32.20
2022-08-18T13:06:59.003Z,32.30
2022-08-18T13:09:35.695Z,32.40
2022-08-18T13:12:18.879Z,32.40
2022-08-18T13:14:50.747Z,32.40
2022-08-18T13:17:28.963Z,32.40
2022-08-18T13:20:02.620Z,32.50
2022-08-18T13:22:33.506Z,32.50
2022-08-18T13:25:03.862Z,32.50
2022-08-18T13:27:35.510Z,32.50
2022-08-18T13:30:29.415Z,32.60
2022-08-18T13:32:59.089Z,32.40
2022-08-18T13:35:30.209Z,32.50
2022-08-18T13:38:14.399Z,32.40
2022-08-18T13:40:47.191Z,32.30
2022-08-18T13:43:17.459Z,32.30
2022-08-18T13:45:53.340Z,32.30
2022-08-18T13:48:25.672Z,32.40
2022-08-18T13:50:56.314Z,32.40
2022-08-18T13:53:28.735Z,32.40
2022-08-18T13:55:59.288Z,32.40
2022-08-18T13:58:29.233Z,32.50
2022-08-18T14:01:22.588Z,32.50
2022-08-18T14:03:49.848Z,32.40
2022-08-18T14:06:22.578Z,32.30
2022-08-18T14:08:54.936Z,32.20
2022-08-18T14:11:33.172Z,32.10
2022-08-18T14:14:02.949Z,32.10
2022-08-18T14:16:31.794Z,32.20
2022-08-18T14:19:17.775Z,32.10
2022-08-18T14:22:06.366Z,32.20
2022-08-18T14:25:00.537Z,32.20
2022-08-18T14:27:34.981Z,32.10
2022-08-18T14:30:06.838Z,32.10
2022-08-18T14:32:36.575Z,32.00
2022-08-18T14:36:03.765Z,32.10
2022-08-18T14:38:09.876Z,32.00
2022-08-18T14:40:43.022Z,32.10
2022-08-18T14:43:14.282Z,32.20
2022-08-18T14:45:47.516Z,32.10
2022-08-18T14:48:23.274Z,32.00
2022-08-18T14:59:37.847Z,31.90
2022-08-18T15:02:13.056Z,31.90
2022-08-18T15:04:55.866Z,32.00
2022-08-18T15:07:26.892Z,32.00
2022-08-18T15:10:15.435Z,31.90
2022-08-18T15:12:45.172Z,31.80
2022-08-18T15:19:58.286Z,31.80
2022-08-18T15:22:38.074Z,31.60
2022-08-18T15:25:25.628Z,31.60
2022-08-18T15:27:54.623Z,31.50
2022-08-18T15:30:23.547Z,31.50
2022-08-18T15:32:53.007Z,31.50
2022-08-18T15:43:46.200Z,31.40
2022-08-18T15:46:16.900Z,31.30
2022-08-18T15:48:45.613Z,31.30
2022-08-18T15:51:14.156Z,31.20
2022-08-18T15:53:45.809Z,31.20
2022-08-18T15:56:16.798Z,31.20
2022-08-18T15:58:51.240Z,31.20
2022-08-18T16:01:32.112Z,31.10
2022-08-18T16:04:01.309Z,31.00
2022-08-18T16:06:32.302Z,31.00
2022-08-18T16:09:01.651Z,31.00
2022-08-18T16:11:31.061Z,31.00
2022-08-18T16:14:00.970Z,31.00
2022-08-18T16:16:36.509Z,30.90
2022-08-18T16:19:06.881Z,30.90
2022-08-18T16:24:36.287Z,30.90
2022-08-18T16:27:06.607Z,30.80
2022-08-18T16:29:36.613Z,30.80
2022-08-18T16:32:05.678Z,30.70
2022-08-18T16:34:45.014Z,30.70
2022-08-18T16:37:13.471Z,30.60
2022-08-18T16:39:42.052Z,30.60
2022-08-18T16:42:11.891Z,30.60
2022-08-18T16:44:41.952Z,30.50
2022-08-18T16:47:10.430Z,30.50
2022-08-18T16:49:39.533Z,30.40
2022-08-18T16:52:08.846Z,30.40
2022-08-18T16:54:37.368Z,30.30
2022-08-18T16:57:08.545Z,30.30
2022-08-18T16:59:55.185Z,30.20
2022-08-18T17:02:57.246Z,30.10
2022-08-18T17:05:25.687Z,30.10
2022-08-18T17:07:54.164Z,30.00
2022-08-18T17:10:22.955Z,29.90
2022-08-18T17:12:55.480Z,29.90
2022-08-18T17:15:24.028Z,29.80
2022-08-18T17:17:54.506Z,29.70
2022-08-18T17:20:23.271Z,29.60
2022-08-18T17:22:55.792Z,29.60
2022-08-18T17:25:27.675Z,29.50
2022-08-18T17:28:02.120Z,29.40
2022-08-18T17:30:38.478Z,29.30
2022-08-18T17:33:14.673Z,29.20
2022-08-18T17:35:47.677Z,29.10
2022-08-18T17:38:27.004Z,29.00
2022-08-18T17:40:58.151Z,28.90
2022-08-18T17:43:31.187Z,28.90
2022-08-18T17:46:04.082Z,28.80
2022-08-18T17:48:37.209Z,28.70
2022-08-18T17:51:28.629Z,28.70
2022-08-18T17:53:59.356Z,28.60
2022-08-18T17:56:35.149Z,28.50
2022-08-18T17:59:46.553Z,28.40
2022-08-18T18:02:19.009Z,28.30
2022-08-18T18:05:02.709Z,28.20
2022-08-18T18:07:38.492Z,28.20
2022-08-18T18:10:10.006Z,28.10
2022-08-18T18:12:39.996Z,28.00
2022-08-18T18:15:12.086Z,27.90
2022-08-18T18:17:42.638Z,27.80
2022-08-18T18:20:25.940Z,27.80
2022-08-18T18:22:54.782Z,27.70
2022-08-18T18:25:34.763Z,27.60
2022-08-18T18:28:03.582Z,27.60
2022-08-18T18:30:32.932Z,27.50
2022-08-18T18:33:05.657Z,27.50
2022-08-18T18:35:54.723Z,27.40
2022-08-18T18:38:29.455Z,27.30
2022-08-18T18:41:02.065Z,27.30
2022-08-18T18:43:37.720Z,27.30
2022-08-18T18:46:30.412Z,27.20
2022-08-18T18:49:11.278Z,27.10
2022-08-18T18:51:50.917Z,27.10
2022-08-18T18:54:33.082Z,27.10
2022-08-18T18:57:03.660Z,27.00
2022-08-18T18:59:49.062Z,27.00
2022-08-18T19:02:33.726Z,27.10
2022-08-18T19:05:13.281Z,27.00
2022-08-18T19:07:54.386Z,26.90
2022-08-18T19:10:28.240Z,26.90
2022-08-18T19:13:01.765Z,26.80
2022-08-18T19:15:35.358Z,26.70
2022-08-18T19:18:21.752Z,26.60
2022-08-18T19:21:45.963Z,26.50
2022-08-18T19:23:50.091Z,26.50
2022-08-18T19:26:27.150Z,26.40
2022-08-18T19:29:13.945Z,26.40
2022-08-18T19:31:47.282Z,26.40
2022-08-18T19:34:30.039Z,26.30
2022-08-18T19:37:04.154Z,26.30
2022-08-18T19:39:45.964Z,26.20
2022-08-18T19:42:21.552Z,26.20
2022-08-18T19:45:15.792Z,26.20
2022-08-18T19:47:52.352Z,26.10
2022-08-18T19:50:28.664Z,26.20
2022-08-18T19:53:20.664Z,26.20
2022-08-18T19:56:04.768Z,26.20
2022-08-18T19:59:15.602Z,26.10
2022-08-18T20:01:58.927Z,26.10
2022-08-18T20:04:43.646Z,26.10
2022-08-18T20:07:32.901Z,26.00
2022-08-18T20:10:32.787Z,26.00
2022-08-18T20:13:20.897Z,25.90
2022-08-18T20:16:14.365Z,25.90
2022-08-18T20:18:44.936Z,25.90
2022-08-18T20:21:37.535Z,25.80
2022-08-18T20:24:33.976Z,25.80
2022-08-18T20:27:21.689Z,25.70
2022-08-18T20:30:32.405Z,25.70
2022-08-18T20:33:12.741Z,25.60
2022-08-18T20:35:46.880Z,25.60
2022-08-18T20:38:22.122Z,25.60
2022-08-18T20:40:52.399Z,25.50
2022-08-18T20:43:30.546Z,25.60
2022-08-18T20:46:23.025Z,25.50
2022-08-18T20:49:09.429Z,25.50
2022-08-18T20:51:52.419Z,25.50
2022-08-18T20:54:33.048Z,25.50
2022-08-18T20:57:04.281Z,25.50
2022-08-18T20:59:36.998Z,25.50
2022-08-18T21:02:09.446Z,25.40
2022-08-18T21:04:47.507Z,25.40
2022-08-18T21:07:36.292Z,25.40
2022-08-18T21:10:13.794Z,25.40
2022-08-18T21:12:52.649Z,25.40
2022-08-18T21:15:24.428Z,25.50
2022-08-18T21:18:03.877Z,25.40
2022-08-18T21:20:32.969Z,25.40
2022-08-18T21:23:04.266Z,25.50
2022-08-18T21:25:34.155Z,25.50
2022-08-18T21:28:04.119Z,25.40
2022-08-18T21:30:33.017Z,25.40
2022-08-18T21:33:17.975Z,25.40
2022-08-18T21:35:46.787Z,25.40
2022-08-18T21:38:15.255Z,25.40
2022-08-18T21:40:49.826Z,25.40
2022-08-18T21:43:40.270Z,25.40
2022-08-18T21:46:11.173Z,25.40
2022-08-18T21:48:50.353Z,25.40
2022-08-18T21:51:21.748Z,25.30
2022-08-18T21:53:52.115Z,25.40
2022-08-18T21:56:23.174Z,25.40
2022-08-18T21:59:06.703Z,25.30
2022-08-18T22:01:37.538Z,25.30
2022-08-18T22:04:26.504Z,25.20
2022-08-18T22:06:58.010Z,25.20
2022-08-18T22:09:46.256Z,25.20
2022-08-18T22:13:13.027Z,25.20
2022-08-18T22:15:43.466Z,25.20
2022-08-18T22:18:35.262Z,25.20
2022-08-18T22:21:11.675Z,25.10
2022-08-18T22:24:03.275Z,25.10
2022-08-18T22:27:34.032Z,25.10
2022-08-18T22:31:10.182Z,25.00
2022-08-18T22:33:39.599Z,25.00
2022-08-18T22:36:11.599Z,25.00
2022-08-18T22:38:42.701Z,24.90
2022-08-18T22:41:11.900Z,24.80
2022-08-18T22:43:40.392Z,24.80
2022-08-18T22:46:08.935Z,24.80
2022-08-18T22:48:37.386Z,24.70
2022-08-18T22:51:06.230Z,24.70
2022-08-18T22:53:36.523Z,24.60
2022-08-18T22:56:07.247Z,24.60
2022-08-18T22:58:36.256Z,24.60
2022-08-18T23:01:07.872Z,24.60
2022-08-18T23:03:42.042Z,24.50
2022-08-18T23:06:11.557Z,24.50
2022-08-18T23:08:54.669Z,24.50
2022-08-18T23:11:25.604Z,24.50
2022-08-18T23:13:54.123Z,24.40
2022-08-18T23:16:31.602Z,24.40
2022-08-18T23:19:02.184Z,24.30
2022-08-18T23:21:34.634Z,24.30
2022-08-18T23:24:06.471Z,24.30
2022-08-18T23:26:35.213Z,24.20
2022-08-18T23:29:06.020Z,24.20
2022-08-18T23:31:34.890Z,24.10
2022-08-18T23:34:03.434Z,24.10
2022-08-18T23:36:34.596Z,24.00
2022-08-18T23:39:04.420Z,24.00
2022-08-18T23:41:34.671Z,24.00
2022-08-18T23:44:03.374Z,23.90
2022-08-18T23:46:33.109Z,23.90
2022-08-18T23:49:04.580Z,23.90
2022-08-18T23:51:44.340Z,23.80
2022-08-18T23:54:17.928Z,23.80
2022-08-18T23:56:48.474Z,23.80
2022-08-18T23:59:19.644Z,23.70
